Time;durP1;ratioP1;P1;durP2;ratioP2;P2;SDS_P1;SDS_P2;PMS_P1;PMS_P2;Temp;Humidity;BMP_temperature;BMP_pressure;BME280_temperature;BME280_humidity;BME280_pressure;Samples;Min_cycle;Max_cycle;Signal;HPM_P1;HPM_P2
2021/06/09 00:01:12;;;;;;;8.93;6.77;;;;;;;13.49;100.00;99677.03;1734051;81;21056;-70
2021/06/09 00:03:39;;;;;;;9.43;6.77;;;;;;;13.44;100.00;99671.62;1741532;80;20880;-72
2021/06/09 00:06:06;;;;;;;8.57;7.67;;;;;;;13.44;100.00;99671.62;1758367;80;21092;-72
2021/06/09 00:08:32;;;;;;;11.13;7.90;;;;;;;13.36;100.00;99678.73;1757650;80;20990;-67
2021/06/09 00:10:59;;;;;;;8.40;7.30;;;;;;;13.32;100.00;99675.45;1758732;80;21161;-71
2021/06/09 00:13:30;;;;;;;9.27;7.63;;;;;;;13.38;100.00;99678.53;1758297;80;20932;-72
2021/06/09 00:15:59;;;;;;;8.80;7.87;;;;;;;13.33;100.00;99675.26;1758407;80;20990;-72
2021/06/09 00:18:26;;;;;;;8.30;7.17;;;;;;;13.30;100.00;99673.06;1757726;80;21100;-66
2021/06/09 00:20:53;;;;;;;8.93;6.97;;;;;;;13.24;100.00;99665.26;1758707;80;21399;-71
2021/06/09 00:23:25;;;;;;;7.77;6.90;;;;;;;13.24;100.00;99666.57;1758758;80;20924;-71
2021/06/09 00:25:50;;;;;;;7.93;6.70;;;;;;;13.18;100.00;99668.18;1758274;80;21705;-72
2021/06/09 00:28:17;;;;;;;8.20;7.30;;;;;;;13.20;100.00;99659.63;1757675;80;20923;-66
2021/06/09 00:30:44;;;;;;;8.43;6.60;;;;;;;13.25;100.00;99662.93;1758397;80;21642;-71
2021/06/09 00:33:11;;;;;;;7.77;6.97;;;;;;;13.17;100.00;99659.25;1758315;80;21106;-71
2021/06/09 00:35:37;;;;;;;10.77;8.57;;;;;;;13.15;100.00;99652.42;1758512;80;21035;-71
2021/06/09 00:38:04;;;;;;;9.60;7.20;;;;;;;13.15;100.00;99654.24;1758353;80;20974;-67
2021/06/09 00:40:32;;;;;;;8.07;6.87;;;;;;;13.14;100.00;99655.23;1745550;80;21684;-70
2021/06/09 00:43:12;;;;;;;8.13;7.33;;;;;;;13.12;100.00;99661.20;1749964;80;21221;-70
2021/06/09 00:45:45;;;;;;;9.67;8.40;;;;;;;13.12;100.00;99661.20;1758389;80;20867;-70
2021/06/09 00:48:13;;;;;;;9.83;7.87;;;;;;;13.13;100.00;99664.11;1757432;80;21043;-70
2021/06/09 00:50:40;;;;;;;9.43;7.67;;;;;;;13.19;100.00;99663.27;1758029;80;21608;-70
2021/06/09 00:55:51;;;;;;;8.30;7.40;;;;;;;13.21;100.00;99669.58;1757417;80;21154;-70
2021/06/09 00:58:18;;;;;;;10.73;7.10;;;;;;;13.25;100.00;99675.50;1745844;80;20982;-67
2021/06/09 01:00:45;;;;;;;9.63;7.63;;;;;;;13.19;100.00;99665.87;1758151;80;21425;-71
2021/06/09 01:03:11;;;;;;;9.20;7.20;;;;;;;13.18;100.00;99661.64;1758291;80;21476;-71
2021/06/09 01:05:38;;;;;;;7.97;6.77;;;;;;;13.13;100.00;99662.80;1734786;81;21053;-68
2021/06/09 01:08:05;;;;;;;8.30;7.40;;;;;;;13.08;100.00;99656.11;1733691;81;21093;-71
2021/06/09 01:10:33;;;;;;;10.23;8.13;;;;;;;13.13;100.00;99658.87;1733834;81;21456;-72
2021/06/09 01:13:00;;;;;;;9.87;8.40;;;;;;;13.07;100.00;99663.67;1733637;81;22019;-72
2021/06/09 01:15:28;;;;;;;12.87;9.07;;;;;;;13.01;100.00;99666.62;1733509;81;21755;-66
2021/06/09 01:17:54;;;;;;;10.03;8.97;;;;;;;12.96;100.00;99660.44;1734120;81;21515;-72
2021/06/09 01:20:21;;;;;;;9.73;8.63;;;;;;;12.90;100.00;99665.48;1733300;81;21971;-71
2021/06/09 01:22:48;;;;;;;10.93;8.40;;;;;;;12.88;100.00;99657.58;1734445;81;21035;-69
2021/06/09 01:25:15;;;;;;;10.30;7.57;;;;;;;12.88;100.00;99660.19;1734001;81;20979;-70
2021/06/09 01:27:41;;;;;;;9.00;7.90;;;;;;;12.85;100.00;99661.41;1733802;81;21508;-69
2021/06/09 01:30:10;;;;;;;10.07;8.60;;;;;;;12.85;100.00;99663.22;1733458;81;21070;-67
2021/06/09 01:32:37;;;;;;;11.23;8.60;;;;;;;12.93;100.00;99660.34;1734569;81;22235;-70
2021/06/09 01:35:06;;;;;;;9.00;7.17;;;;;;;12.93;100.00;99660.34;1733978;81;20955;-69
2021/06/09 01:37:32;;;;;;;8.80;7.37;;;;;;;13.04;100.00;99655.73;1734039;81;21707;-67
2021/06/09 01:39:59;;;;;;;10.90;8.07;;;;;;;12.94;100.00;99660.63;1725018;81;21460;-69
2021/06/09 01:42:29;;;;;;;9.20;8.07;;;;;;;13.04;100.00;99664.09;1727865;81;21545;-70
2021/06/09 01:44:55;;;;;;;9.83;7.67;;;;;;;13.07;100.00;99668.39;1734541;81;22301;-69
2021/06/09 01:47:22;;;;;;;8.23;7.43;;;;;;;13.08;100.00;99666.06;1733590;81;20924;-68
2021/06/09 01:49:49;;;;;;;8.40;7.50;;;;;;;13.08;100.00;99666.06;1733985;81;20995;-69
2021/06/09 01:52:20;;;;;;;9.60;8.00;;;;;;;13.09;100.00;99670.78;1733384;81;21026;-70
2021/06/09 01:54:47;;;;;;;8.93;7.92;;;;;;;13.13;100.00;99666.72;1734670;81;21754;-69
2021/06/09 01:57:15;;;;;;;9.60;8.10;;;;;;;13.20;100.00;99667.47;1725352;81;21122;-69
2021/06/09 01:59:42;;;;;;;10.03;7.03;;;;;;;13.28;100.00;99669.05;1730914;81;20936;-69
2021/06/09 02:02:12;;;;;;;9.43;7.83;;;;;;;13.32;100.00;99672.32;1733149;81;21029;-69
2021/06/09 02:04:43;;;;;;;8.83;7.90;;;;;;;13.38;100.00;99674.09;1734759;81;20931;-71
2021/06/09 02:07:10;;;;;;;9.88;7.55;;;;;;;13.50;100.00;99676.00;1734247;81;27469;-69
2021/06/09 02:09:38;;;;;;;9.13;7.27;;;;;;;13.62;100.00;99671.64;1733905;81;21095;-69
2021/06/09 02:12:07;;;;;;;7.83;6.83;;;;;;;13.58;100.00;99674.41;1733427;81;21078;-69
2021/06/09 02:14:35;;;;;;;9.90;7.60;;;;;;;13.59;100.00;99674.18;1734496;81;21883;-69
2021/06/09 02:17:05;;;;;;;10.43;6.90;;;;;;;13.62;100.00;99675.58;1710841;82;21023;-69
2021/06/09 02:19:32;;;;;;;8.63;7.17;;;;;;;13.65;100.00;99676.97;1734258;81;20983;-67
2021/06/09 02:21:58;;;;;;;9.60;6.93;;;;;;;13.67;100.00;99678.33;1710323;81;22510;-70
2021/06/09 02:24:27;;;;;;;7.03;6.17;;;;;;;13.71;100.00;99683.94;1733671;81;21351;-70
2021/06/09 02:26:53;;;;;;;8.37;6.57;;;;;;;13.73;100.00;99689.27;1734551;81;21332;-70
2021/06/09 02:29:20;;;;;;;7.93;6.37;;;;;;;13.77;100.00;99683.88;1733585;81;21856;-68
2021/06/09 02:31:49;;;;;;;8.13;5.97;;;;;;;13.79;100.00;99694.95;1734370;81;21432;-68
2021/06/09 02:34:19;;;;;;;9.53;7.13;;;;;;;13.86;100.00;99689.63;1732737;81;21487;-70
2021/06/09 02:36:50;;;;;;;11.78;7.37;;;;;;;13.98;100.00;99697.07;1734697;81;20904;-70
2021/06/09 02:39:18;;;;;;;9.20;7.00;;;;;;;13.99;100.00;99697.36;1732422;81;21043;-71
2021/06/09 02:41:45;;;;;;;9.77;7.07;;;;;;;13.99;100.00;99703.11;1722151;81;21578;-70
2021/06/09 02:44:12;;;;;;;9.63;6.40;;;;;;;14.04;100.00;99704.55;1733822;81;21141;-70
2021/06/09 02:46:42;;;;;;;8.03;6.63;;;;;;;14.11;100.00;99703.45;1734631;81;21148;-70
2021/06/09 02:49:11;;;;;;;10.30;7.97;;;;;;;14.22;100.00;99699.30;1732755;81;20945;-70
2021/06/09 02:51:45;;;;;;;10.20;8.37;;;;;;;14.22;100.00;99699.81;1734488;81;21492;-68
2021/06/09 02:54:34;;;;;;;10.27;8.30;;;;;;;14.28;100.00;99702.37;1733668;81;21068;-70
2021/06/09 02:57:41;;;;;;;12.70;8.93;;;;;;;14.36;100.00;99709.92;1725173;81;20990;-73
2021/06/09 03:00:18;;;;;;;11.00;8.70;;;;;;;14.57;100.00;99707.34;1726280;80;21776;31
2021/06/09 03:03:05;;;;;;;11.90;8.90;;;;;;;14.67;100.00;99708.66;1615006;87;21601;-68
2021/06/09 03:05:58;;;;;;;11.23;8.70;;;;;;;14.79;100.00;99707.66;1631408;87;21091;-68
2021/06/09 03:08:37;;;;;;;11.70;8.73;;;;;;;14.91;100.00;99707.69;1619912;87;21053;-71
2021/06/09 03:11:24;;;;;;;11.57;8.47;;;;;;;15.06;100.00;99718.56;1614805;87;21659;-70
2021/06/09 03:14:01;;;;;;;9.83;7.20;;;;;;;15.12;100.00;99714.25;1635631;87;21180;-71
2021/06/09 03:16:33;;;;;;;9.50;8.10;;;;;;;15.23;100.00;99713.47;1625905;87;21636;-72
2021/06/09 03:19:06;;;;;;;13.93;7.87;;;;;;;15.28;100.00;99714.89;1635097;86;20991;-72
2021/06/09 03:21:40;;;;;;;11.20;8.67;;;;;;;15.38;100.00;99710.89;1671573;84;21002;-73
2021/06/09 03:24:26;;;;;;;12.77;7.80;;;;;;;15.49;100.00;99710.09;1626608;86;21557;-75
2021/06/09 03:26:58;;;;;;;9.73;7.63;;;;;;;15.61;100.00;99708.78;1633354;86;20999;-67
2021/06/09 03:29:48;;;;;;;10.33;8.47;;;;;;;15.78;100.00;99703.16;1677418;84;20982;-74
2021/06/09 03:32:46;;;;;;;12.67;8.13;;;;;;;15.97;100.00;99709.06;1667261;84;20985;-67
2021/06/09 03:35:21;;;;;;;8.90;7.57;;;;;;;16.13;100.00;99709.66;1671586;84;21891;-74
2021/06/09 03:37:53;;;;;;;9.27;7.60;;;;;;;16.25;100.00;99706.50;1684193;84;20913;-73
2021/06/09 03:40:28;;;;;;;9.90;8.90;;;;;;;16.31;100.00;99711.33;1681922;84;21138;-74
2021/06/09 03:42:58;;;;;;;13.43;10.10;;;;;;;16.34;100.00;99712.70;1623676;88;21565;-69
2021/06/09 03:45:26;;;;;;;9.33;8.20;;;;;;;16.32;100.00;99704.23;1668771;84;21002;-70
2021/06/09 03:47:54;;;;;;;13.57;8.93;;;;;;;16.26;100.00;99696.25;1615996;87;21009;-69
2021/06/09 03:50:24;;;;;;;11.03;9.80;;;;;;;16.23;100.00;99688.03;1613067;88;22529;-71
2021/06/09 03:52:50;;;;;;;20.10;9.40;;;;;;;16.19;100.00;99689.53;1632195;86;21207;-68
2021/06/09 03:55:21;;;;;;;15.10;9.73;;;;;;;16.17;100.00;99688.95;1638271;86;21063;-70
2021/06/09 03:57:49;;;;;;;9.35;8.40;;;;;;;16.17;100.00;99691.06;1686727;84;20981;-69
2021/06/09 04:00:18;;;;;;;11.20;8.83;;;;;;;16.21;100.00;99686.96;1681481;84;21649;-71
2021/06/09 04:02:45;;;;;;;14.97;10.27;;;;;;;16.21;100.00;99690.91;1676429;84;21105;-71
2021/06/09 04:05:11;;;;;;;11.67;10.20;;;;;;;16.18;100.00;99694.52;1653993;86;21168;-70
2021/06/09 04:07:38;;;;;;;11.40;9.97;;;;;;;16.16;100.00;99692.62;1647461;86;20975;-68
2021/06/09 04:10:06;;;;;;;13.70;10.00;;;;;;;16.23;100.00;99698.55;1625089;86;20918;-73
2021/06/09 04:12:34;;;;;;;13.67;9.77;;;;;;;16.41;100.00;99691.00;1635497;85;20983;-72
2021/06/09 04:15:02;;;;;;;13.47;10.47;;;;;;;16.39;100.00;99690.43;1632188;86;21154;-74
2021/06/09 04:17:29;;;;;;;11.27;10.03;;;;;;;16.49;100.00;99691.94;1640932;86;21110;-76
2021/06/09 04:19:59;;;;;;;11.53;9.70;;;;;;;16.61;100.00;99691.88;1629340;86;21023;-71
2021/06/09 04:22:26;;;;;;;10.90;9.77;;;;;;;16.84;100.00;99686.52;1633702;86;21655;-67
2021/06/09 04:24:52;;;;;;;11.57;10.37;;;;;;;17.29;100.00;99684.34;1599391;88;21092;-70
2021/06/09 04:27:27;;;;;;;12.03;10.83;;;;;;;17.72;100.00;99683.61;1597678;88;21158;-70
2021/06/09 04:29:55;;;;;;;12.20;10.27;;;;;;;18.03;100.00;99683.23;1640289;86;21114;-69
2021/06/09 04:32:22;;;;;;;11.03;9.03;;;;;;;18.38;100.00;99673.62;1645025;86;21066;-69
2021/06/09 04:34:54;;;;;;;10.57;9.50;;;;;;;18.59;100.00;99664.83;1598881;88;21003;-68
2021/06/09 04:37:23;;;;;;;11.17;10.07;;;;;;;18.69;100.00;99663.61;1641670;86;21371;-69
2021/06/09 04:39:50;;;;;;;10.07;8.97;;;;;;;18.91;100.00;99656.17;1629974;86;21031;-70
2021/06/09 04:42:17;;;;;;;9.13;8.23;;;;;;;19.80;100.00;99652.76;1639505;86;21172;-69
2021/06/09 04:44:44;;;;;;;11.93;9.37;;;;;;;21.16;100.00;99643.16;1640770;86;20964;-68
2021/06/09 04:47:13;;;;;;;8.23;7.43;;;;;;;22.70;100.00;99632.67;1645959;86;20980;-68
2021/06/09 04:49:43;;;;;;;8.00;7.23;;;;;;;24.11;100.00;99633.31;1649586;86;20991;-68
2021/06/09 04:52:11;;;;;;;8.28;7.47;;;;;;;25.05;100.00;99633.72;1630214;86;20936;-67
2021/06/09 04:54:38;;;;;;;7.67;6.97;;;;;;;25.79;100.00;99635.80;1635542;86;21132;-67
2021/06/09 04:57:06;;;;;;;9.53;8.63;;;;;;;26.43;100.00;99633.05;1631090;86;21604;-68
2021/06/09 04:59:33;;;;;;;7.35;6.62;;;;;;;27.39;100.00;99635.75;1638396;86;21017;-68
2021/06/09 05:02:00;;;;;;;7.55;5.50;;;;;;;27.39;100.00;99635.75;1603707;87;21588;-69
2021/06/09 05:04:27;;;;;;;6.97;6.33;;;;;;;27.84;100.00;99622.16;1670319;84;21008;-67
2021/06/09 05:06:54;;;;;;;8.35;6.70;;;;;;;27.95;100.00;99623.98;1630923;86;21208;-66
2021/06/09 05:09:20;;;;;;;15.23;13.05;;;;;;;27.71;100.00;99638.58;1674174;84;21416;-68
2021/06/09 05:12:05;;;;;;;10.50;9.40;;;;;;;27.44;100.00;99644.97;1662592;84;21503;-68
2021/06/09 05:14:53;;;;;;;12.20;10.82;;;;;;;27.08;100.00;99650.45;1633195;86;21606;-68
2021/06/09 05:17:23;;;;;;;12.20;10.95;;;;;;;26.59;100.00;99648.19;1681828;84;21178;-70
2021/06/09 05:19:51;;;;;;;11.03;9.85;;;;;;;26.56;100.00;99647.48;1649396;86;21049;-68
2021/06/09 05:22:43;;;;;;;11.50;10.13;;;;;;;26.73;100.00;99652.94;1686003;84;21013;-68
2021/06/09 05:25:10;;;;;;;16.25;13.30;;;;;;;26.92;100.00;99656.19;1624041;87;21143;-69
2021/06/09 05:27:38;;;;;;;18.57;15.55;;;;;;;27.64;100.00;99653.76;1621992;84;21106;-69
2021/06/09 05:30:06;;;;;;;18.67;15.70;;;;;;;27.88;100.00;99653.38;1643771;86;21515;-67
2021/06/09 05:32:34;;;;;;;18.55;14.83;;;;;;;28.10;100.00;99647.63;1646228;86;22439;-68
2021/06/09 05:35:04;;;;;;;15.20;13.20;;;;;;;28.24;100.00;99644.25;1676624;84;21099;-69
2021/06/09 05:37:34;;;;;;;15.90;12.73;;;;;;;28.41;100.00;99644.81;1675250;84;21771;-69
2021/06/09 05:40:07;;;;;;;12.00;10.43;;;;;;;28.79;100.00;99640.10;1675672;84;21456;-68
2021/06/09 05:42:31;;;;;;;14.18;11.08;;;;;;;29.03;100.00;99639.61;1648177;86;22233;-67
2021/06/09 05:44:57;;;;;;;18.55;13.48;;;;;;;29.02;100.00;99642.06;1677415;84;22221;-67
2021/06/09 05:47:24;;;;;;;21.05;14.23;;;;;;;29.39;100.00;99641.02;1680715;84;20937;-68
2021/06/09 05:50:14;;;;;;;16.45;11.80;;;;;;;29.71;100.00;99635.04;1646020;86;21077;-67
2021/06/09 05:52:40;;;;;;;14.70;10.63;;;;;;;29.66;100.00;99636.55;1638173;86;21110;-68
2021/06/09 05:55:14;;;;;;;12.30;9.15;;;;;;;29.09;100.00;99639.12;1680373;84;21080;-70
2021/06/09 05:57:41;;;;;;;11.28;8.35;;;;;;;28.54;100.00;99639.84;1672672;84;21142;-72
2021/06/09 06:00:09;;;;;;;9.83;8.08;;;;;;;28.38;100.00;99642.01;1683113;84;20905;-65
2021/06/09 06:02:36;;;;;;;9.83;8.70;;;;;;;28.44;100.00;99645.53;1681538;84;21377;-72
2021/06/09 06:05:07;;;;;;;11.57;9.65;;;;;;;28.53;100.00;99644.20;1700321;84;21514;-73
2021/06/09 06:07:34;;;;;;;15.15;12.30;;;;;;;28.13;100.00;99645.67;1691682;84;20964;-69
2021/06/09 06:10:03;;;;;;;14.03;10.23;;;;;;;27.91;100.00;99645.80;1670423;84;21112;-73
2021/06/09 06:12:30;;;;;;;20.80;12.82;;;;;;;28.01;100.00;99648.98;1689776;83;21319;-73
2021/06/09 06:14:58;;;;;;;17.57;11.65;;;;;;;28.21;100.00;99648.90;1667563;85;21480;-74
2021/06/09 06:17:24;;;;;;;17.05;12.63;;;;;;;28.13;100.00;99649.69;1671280;85;21023;-73
2021/06/09 06:19:51;;;;;;;15.03;12.25;;;;;;;28.23;100.00;99648.60;1646277;85;21030;-65
2021/06/09 06:22:18;;;;;;;11.57;8.48;;;;;;;28.47;100.00;99644.11;1666684;85;21146;-69
2021/06/09 06:24:48;;;;;;;11.95;8.80;;;;;;;28.66;100.00;99639.20;1663975;85;21103;-69
2021/06/09 06:27:16;;;;;;;8.38;7.05;;;;;;;28.69;100.00;99633.20;1662360;85;21013;-71
2021/06/09 06:29:44;;;;;;;9.43;6.70;;;;;;;28.97;100.00;99636.83;1652484;85;21553;-69
2021/06/09 06:32:13;;;;;;;7.15;5.65;;;;;;;28.84;100.00;99638.05;1662424;85;22252;-66
2021/06/09 06:34:45;;;;;;;5.67;5.03;;;;;;;28.86;100.00;99638.50;1656791;85;22019;-70
2021/06/09 06:37:12;;;;;;;6.65;5.97;;;;;;;29.17;100.00;99639.38;1638467;85;21026;-69
2021/06/09 06:39:42;;;;;;;6.67;5.17;;;;;;;29.46;100.00;99631.91;1659417;85;21081;-68
2021/06/09 06:42:08;;;;;;;6.75;5.05;;;;;;;29.69;100.00;99629.75;1652522;85;21010;-67
2021/06/09 06:44:36;;;;;;;5.17;4.10;;;;;;;29.57;100.00;99639.30;1659552;85;21454;-68
2021/06/09 06:47:03;;;;;;;5.83;4.12;;;;;;;29.69;100.00;99631.09;1640796;85;21160;-68
2021/06/09 06:49:30;;;;;;;4.90;4.15;;;;;;;29.87;100.00;99627.18;1660693;85;21074;-68
2021/06/09 06:51:57;;;;;;;7.53;4.75;;;;;;;30.08;100.00;99621.82;1658872;85;21017;-65
2021/06/09 06:54:25;;;;;;;6.92;5.15;;;;;;;30.31;100.00;99623.62;1661005;85;21245;-67
2021/06/09 06:56:56;;;;;;;6.67;5.22;;;;;;;30.42;100.00;99622.10;1634801;85;21096;-68
2021/06/09 06:59:24;;;;;;;13.40;6.65;;;;;;;30.45;100.00;99628.14;1662659;85;21164;-69
2021/06/09 07:01:51;;;;;;;6.60;4.25;;;;;;;30.42;100.00;99630.70;1665006;85;21131;-66
2021/06/09 07:04:19;;;;;;;8.60;5.03;;;;;;;30.26;100.00;99635.91;1643690;85;21066;-68
2021/06/09 07:06:48;;;;;;;8.20;5.87;;;;;;;30.07;100.00;99632.32;1663950;85;22502;-68
2021/06/09 07:09:19;;;;;;;7.22;5.12;;;;;;;29.94;100.00;99630.70;1669382;85;21106;-68
2021/06/09 07:11:48;;;;;;;8.33;6.08;;;;;;;30.26;100.00;99623.25;1659244;85;21142;-66
2021/06/09 07:14:14;;;;;;;10.05;6.45;;;;;;;30.63;100.00;99623.38;1666536;84;22396;-67
2021/06/09 07:16:43;;;;;;;9.50;5.92;;;;;;;30.98;97.42;99623.80;1660060;85;21058;-72
2021/06/09 07:19:10;;;;;;;9.03;6.40;;;;;;;31.12;97.25;99626.17;1670579;85;21054;-72
2021/06/09 07:21:39;;;;;;;11.93;5.95;;;;;;;30.95;95.60;99623.68;1644456;85;21083;-72
2021/06/09 07:24:06;;;;;;;7.70;5.60;;;;;;;30.57;99.92;99626.04;1647376;85;21834;-65
2021/06/09 07:26:40;;;;;;;8.68;6.42;;;;;;;30.41;97.38;99621.07;1661423;85;21144;-68
2021/06/09 07:29:07;;;;;;;9.38;5.78;;;;;;;30.37;100.00;99619.59;1643418;85;21050;-69
2021/06/09 07:31:36;;;;;;;8.70;5.65;;;;;;;30.38;99.84;99622.51;1671404;85;21031;-68
2021/06/09 07:34:04;;;;;;;9.18;6.17;;;;;;;30.36;99.88;99628.79;1662360;84;21448;-69
2021/06/09 07:36:42;;;;;;;11.53;6.75;;;;;;;30.26;96.04;99627.28;1667151;85;21535;-70
2021/06/09 07:39:13;;;;;;;13.60;7.15;;;;;;;30.19;98.75;99628.93;1636525;85;21541;-70
2021/06/09 07:41:41;;;;;;;13.00;8.18;;;;;;;30.13;97.61;99628.33;1649575;85;21057;-65
2021/06/09 07:44:09;;;;;;;12.78;7.55;;;;;;;30.07;96.36;99620.22;1654596;85;21442;-70
2021/06/09 07:46:36;;;;;;;14.20;8.15;;;;;;;29.93;97.80;99621.85;1649065;85;21629;-68
2021/06/09 07:49:07;;;;;;;12.18;7.85;;;;;;;29.93;98.37;99615.13;1635087;87;21228;-68
2021/06/09 07:51:33;;;;;;;12.15;7.35;;;;;;;30.12;100.00;99607.95;1656908;85;21065;-65
2021/06/09 07:54:00;;;;;;;14.30;8.68;;;;;;;30.47;99.92;99614.38;1643509;85;21083;-64
2021/06/09 07:56:35;;;;;;;12.82;8.50;;;;;;;30.80;92.42;99614.38;1671136;85;20994;-67
2021/06/09 07:59:04;;;;;;;13.83;8.70;;;;;;;31.07;92.75;99612.17;1652824;85;21530;-68
2021/06/09 08:01:32;;;;;;;10.48;7.05;;;;;;;31.35;96.27;99607.69;1659728;85;21132;-67
2021/06/09 08:03:59;;;;;;;8.68;6.35;;;;;;;31.92;86.92;99604.02;1651266;85;21146;-69
2021/06/09 08:06:26;;;;;;;7.75;4.70;;;;;;;32.02;82.24;99601.41;1682614;84;21024;-68
2021/06/09 08:08:54;;;;;;;8.98;4.62;;;;;;;31.96;77.91;99606.81;1679664;84;21588;-69
2021/06/09 08:11:21;;;;;;;5.70;3.52;;;;;;;32.19;74.14;99601.11;1660072;84;21151;-64
2021/06/09 08:13:48;;;;;;;5.92;3.08;;;;;;;32.54;69.89;99601.86;1660724;84;21163;-68
2021/06/09 08:16:18;;;;;;;4.78;3.60;;;;;;;32.48;71.81;99600.55;1675947;84;21113;-68
2021/06/09 08:18:46;;;;;;;5.65;3.15;;;;;;;32.23;76.98;99606.03;1666926;84;21104;-68
2021/06/09 08:21:16;;;;;;;3.90;2.40;;;;;;;32.07;72.53;99609.81;1675611;84;21138;-68
2021/06/09 08:23:46;;;;;;;2.65;1.85;;;;;;;31.91;77.12;99613.23;1615680;86;21565;-68
2021/06/09 08:26:14;;;;;;;3.58;1.90;;;;;;;31.81;64.57;99615.59;1634741;86;22090;-68
2021/06/09 08:28:43;;;;;;;2.40;1.30;;;;;;;31.42;70.53;99620.60;1637122;86;21511;-69
2021/06/09 08:31:13;;;;;;;1.98;1.17;;;;;;;30.82;74.06;99628.84;1639371;86;20983;-71
2021/06/09 08:33:41;;;;;;;5.10;2.12;;;;;;;29.84;81.48;99632.42;1638428;86;21014;-70
2021/06/09 08:36:10;;;;;;;5.10;1.70;;;;;;;28.90;94.64;99631.95;1682424;84;22410;-64
2021/06/09 08:38:37;;;;;;;2.25;1.52;;;;;;;27.81;100.00;99634.30;1677247;84;21578;-72
2021/06/09 08:41:04;;;;;;;3.12;1.60;;;;;;;26.65;97.78;99640.30;1665982;84;21086;-70
2021/06/09 08:43:37;;;;;;;2.65;1.40;;;;;;;25.66;100.00;99636.58;1631018;86;21166;-64
2021/06/09 08:46:06;;;;;;;2.95;1.45;;;;;;;24.98;100.00;99640.22;1630389;86;21095;-65
2021/06/09 08:48:36;;;;;;;6.03;1.73;;;;;;;24.33;100.00;99655.38;1669970;84;21146;-67
2021/06/09 08:51:05;;;;;;;4.07;1.50;;;;;;;23.44;100.00;99675.87;1679405;84;21764;-72
2021/06/09 08:53:38;;;;;;;5.37;1.93;;;;;;;22.77;100.00;99684.97;1671586;84;21258;-73
2021/06/09 08:56:05;;;;;;;10.13;1.90;;;;;;;22.22;100.00;99689.55;1661610;84;20949;-73
2021/06/09 08:58:32;;;;;;;4.30;1.50;;;;;;;21.79;100.00;99691.84;1678238;84;22103;-73
2021/06/09 09:00:59;;;;;;;5.80;2.00;;;;;;;21.39;100.00;99689.55;1647150;86;20967;-74
2021/06/09 09:03:25;;;;;;;6.83;2.43;;;;;;;21.20;100.00;99677.88;1636727;86;21908;-73
2021/06/09 09:05:52;;;;;;;6.50;2.13;;;;;;;20.83;100.00;99671.00;1640017;86;21014;-71
2021/06/09 09:08:19;;;;;;;9.87;1.93;;;;;;;20.48;100.00;99671.21;1638045;86;20983;-70
2021/06/09 09:10:47;;;;;;;2.73;1.50;;;;;;;20.40;100.00;99666.44;1646616;86;20952;-70
2021/06/09 09:13:15;;;;;;;4.13;1.77;;;;;;;20.25;100.00;99664.55;1650044;86;21108;-70
2021/06/09 09:15:43;;;;;;;3.07;2.13;;;;;;;20.03;100.00;99662.09;1644789;86;20936;-71
2021/06/09 09:18:09;;;;;;;4.70;1.97;;;;;;;19.97;100.00;99658.39;1649647;86;20912;-70
2021/06/09 09:20:41;;;;;;;4.90;1.80;;;;;;;19.90;100.00;99656.77;1683925;84;21660;-72
2021/06/09 09:23:21;;;;;;;4.35;1.80;;;;;;;19.89;100.00;99653.08;1672206;83;21112;-71
2021/06/09 09:25:54;;;;;;;4.73;2.33;;;;;;;19.81;100.00;99653.55;1674338;84;21077;-68
2021/06/09 09:28:31;;;;;;;3.27;1.77;;;;;;;19.71;100.00;99662.25;1666109;84;22087;-69
2021/06/09 09:31:16;;;;;;;4.07;2.20;;;;;;;19.99;100.00;99661.03;1672610;84;21016;-71
2021/06/09 09:33:43;;;;;;;4.03;1.90;;;;;;;20.11;100.00;99659.47;1671406;84;21029;-69
2021/06/09 09:36:25;;;;;;;3.53;1.40;;;;;;;20.17;100.00;99658.45;1673462;84;22142;-73
2021/06/09 09:38:52;;;;;;;3.17;1.60;;;;;;;20.14;100.00;99658.96;1675539;84;21098;-72
2021/06/09 09:41:20;;;;;;;2.17;1.30;;;;;;;20.23;100.00;99655.27;1668680;84;22351;-69
2021/06/09 09:43:58;;;;;;;2.17;1.53;;;;;;;20.18;100.00;99656.84;1669626;84;21175;-73
2021/06/09 09:46:32;;;;;;;2.20;1.40;;;;;;;20.17;100.00;99655.80;1668227;84;20993;-71
2021/06/09 09:49:10;;;;;;;4.90;1.70;;;;;;;20.22;100.00;99653.69;1667499;84;20956;-72
2021/06/09 09:51:55;;;;;;;2.77;1.33;;;;;;;20.39;100.00;99648.97;1675010;84;21385;-74
2021/06/09 09:54:31;;;;;;;3.90;1.57;;;;;;;20.38;100.00;99644.71;1642054;86;21979;-71
2021/06/09 09:56:59;;;;;;;2.57;1.40;;;;;;;20.45;100.00;99634.66;1670642;84;21028;-70
2021/06/09 09:59:26;;;;;;;3.27;1.40;;;;;;;20.44;100.00;99627.00;1686265;84;21593;-71
2021/06/09 10:01:54;;;;;;;2.07;1.10;;;;;;;20.43;100.00;99620.91;1682116;84;20955;-71
2021/06/09 10:04:29;;;;;;;3.33;1.50;;;;;;;20.49;100.00;99619.05;1677998;84;21557;-70
2021/06/09 10:06:58;;;;;;;2.20;1.20;;;;;;;20.62;100.00;99622.02;1683164;84;22343;-70
2021/06/09 10:09:42;;;;;;;1.93;1.13;;;;;;;20.77;100.00;99619.11;1679301;84;21019;-70
2021/06/09 10:12:13;;;;;;;2.17;1.10;;;;;;;20.92;100.00;99623.06;1623313;86;21125;-71
2021/06/09 10:14:45;;;;;;;2.17;1.30;;;;;;;21.09;100.00;99627.53;1671958;84;21039;-68
2021/06/09 10:17:19;;;;;;;2.35;1.07;;;;;;;21.33;100.00;99626.47;1629628;86;21053;-70
2021/06/09 10:19:50;;;;;;;1.70;1.30;;;;;;;21.56;100.00;99621.09;1678794;84;21147;-71
2021/06/09 10:22:23;;;;;;;1.83;1.30;;;;;;;21.87;100.00;99624.94;1655254;84;20969;-69
2021/06/09 10:24:59;;;;;;;3.00;1.20;;;;;;;22.11;100.00;99614.45;1676006;84;22295;-72
2021/06/09 10:27:36;;;;;;;2.73;1.43;;;;;;;22.30;100.00;99611.98;1626167;86;21597;-73
2021/06/09 10:30:19;;;;;;;2.00;1.50;;;;;;;22.65;100.00;99609.58;1612722;86;20955;-68
2021/06/09 10:32:58;;;;;;;2.00;1.50;;;;;;;23.18;100.00;99601.66;1681212;84;21570;-72
2021/06/09 10:35:30;;;;;;;3.40;1.77;;;;;;;23.69;100.00;99595.01;1669666;84;21011;-70
2021/06/09 10:38:17;;;;;;;2.17;1.10;;;;;;;24.01;100.00;99592.96;1678916;84;21072;-68
2021/06/09 10:40:43;;;;;;;3.13;1.40;;;;;;;24.30;100.00;99588.81;1664886;84;21031;-67
2021/06/09 10:43:10;;;;;;;2.40;1.30;;;;;;;24.58;100.00;99587.59;1659253;84;21027;-67
2021/06/09 10:45:37;;;;;;;2.90;1.27;;;;;;;24.73;100.00;99581.45;1655509;84;22156;-66
2021/06/09 10:48:05;;;;;;;3.57;1.30;;;;;;;24.90;100.00;99580.91;1662123;84;21562;-68
2021/06/09 10:50:32;;;;;;;2.90;1.40;;;;;;;25.07;100.00;99584.88;1658455;84;21072;-69
2021/06/09 10:52:58;;;;;;;2.27;1.40;;;;;;;25.12;100.00;99582.16;1629988;86;21132;-68
2021/06/09 10:55:25;;;;;;;4.27;1.70;;;;;;;25.33;100.00;99573.98;1626612;86;20877;-68
2021/06/09 10:57:51;;;;;;;8.27;1.70;;;;;;;25.44;100.00;99576.70;1597476;87;21232;-68
2021/06/09 11:00:18;;;;;;;6.03;1.93;;;;;;;25.56;100.00;99575.39;1623780;87;21159;-69
2021/06/09 11:02:47;;;;;;;7.90;2.43;;;;;;;25.59;100.00;99582.27;1627263;87;21537;-67
2021/06/09 11:05:14;;;;;;;6.57;1.93;;;;;;;25.74;100.00;99578.48;1601102;87;21079;-69
2021/06/09 11:07:44;;;;;;;6.03;1.90;;;;;;;25.72;100.00;99577.98;1628875;87;21033;-66
2021/06/09 11:10:45;;;;;;;3.47;1.80;;;;;;;25.28;100.00;99582.10;1629021;87;21150;-68
2021/06/09 11:13:27;;;;;;;4.13;1.60;;;;;;;25.52;100.00;99577.09;1628416;87;21068;-66
2021/06/09 11:16:09;;;;;;;3.60;1.60;;;;;;;25.51;100.00;99574.18;1619799;87;21122;-69
2021/06/09 11:18:41;;;;;;;6.67;1.87;;;;;;;25.37;100.00;99573.63;1617095;87;21423;-66
2021/06/09 11:21:09;;;;;;;2.90;1.50;;;;;;;25.30;100.00;99566.57;1663155;84;21018;-69
2021/06/09 11:23:39;;;;;;;3.20;2.20;;;;;;;25.20;100.00;99566.80;1662140;84;21234;-68
2021/06/09 11:26:06;;;;;;;2.17;1.60;;;;;;;25.12;100.00;99568.28;1661899;84;21102;-67
2021/06/09 11:28:39;;;;;;;2.30;1.47;;;;;;;25.00;100.00;99566.07;1628538;87;21537;-67
2021/06/09 11:31:14;;;;;;;2.63;1.57;;;;;;;24.95;100.00;99568.81;1616305;87;21017;-68
2021/06/09 11:33:54;;;;;;;2.73;1.70;;;;;;;24.90;100.00;99563.58;1602805;87;21107;-68
2021/06/09 11:40:10;;;;;;;1.97;1.70;;;;;;;24.84;100.00;99559.96;1618460;86;21078;-70
2021/06/09 11:42:36;;;;;;;1.97;1.50;;;;;;;24.98;100.00;99562.11;1622278;86;21563;-69